BBC Switzerland — DGFL2 — position and weather

sailwx.info

Track history (hours):
 
Tides and Currents Weather Stations Pressure Air Temp Water Temp Dewpoint Dewpoint Depression Visibility Wind Speed Wind Dir Waves Ship Positions

BBC Switzerland

Last reported at 2016-Apr-24 11:30 UTC. Time now 2016-May-06 18:48 UTC.
Position N 28°29' W 016°13'.
Warning: this ship's position is 12 days out of date.

Length 119 m; draft 6.1 m.

Type: Cargo ship. MMSI: 218629000.

Date/timePositionNaut miles runAvg speedWind from/ knotsBaromVisibWave heightAir tempDewpointWater temp
2016-Apr-24 11:30N 28°29' W 016°13'0 0.0
2016-Apr-24 10:10N 28°29' W 016°13'0 0.0
2016-Apr-24 07:22N 28°29' W 016°13'1 0.0
2016-Apr-22 09:25N 28°29' W 016°14'1 0.7
2016-Apr-22 08:12N 28°29' W 016°13'0 0.0
2016-Apr-21 23:06N 28°29' W 016°13'0 0.0
2016-Apr-21 22:24N 28°29' W 016°13'1 0.2
2016-Apr-21 17:31N 28°29' W 016°14'22 0.8
2016-Apr-20 14:30N 28°33' W 015°49'1515.7
2016-Apr-20 13:33N 28°43' W 015°36'1615.3
2016-Apr-20 12:31N 28°54' W 015°23'66014.2
2016-Apr-18 14:08N 36°00' W 005°26'66214.8
2016-Apr-16 17:25N 37°43' E 008°12'1715.6
2016-Apr-16 16:19N 37°46' E 008°33'1215.3
2016-Apr-16 15:33N 37°48' E 008°48'1515.2
2016-Apr-16 14:33N 37°50' E 009°07'1514.6
2016-Apr-16 13:33N 37°52' E 009°25'7714.4
2016-Apr-16 08:13N 38°04' E 011°02'1014.2
2016-Apr-16 07:31N 38°06' E 011°14'1414.2
2016-Apr-16 06:32N 38°08' E 011°32'7514.9
2016-Apr-16 01:32N 38°18' E 013°06'1515.2
2016-Apr-16 00:33N 38°18' E 013°24'1615.5
2016-Apr-15 23:32N 38°18' E 013°45'1514.8
2016-Apr-15 22:32N 38°19' E 014°03'4715.1
2016-Apr-15 19:24N 38°21' E 015°04'1415.3
2016-Apr-15 18:30N 38°21' E 015°21'1415.0
2016-Apr-15 17:33N 38°19' E 015°39'1212.6
2016-Apr-15 16:33N 38°07' E 015°36'1414.5
2016-Apr-15 15:33N 37°53' E 015°43'  
Track history (hours):
 
Tides and Currents Weather Stations Pressure Air Temp Water Temp Dewpoint Dewpoint Depression Visibility Wind Speed Wind Dir Waves Ship Positions

BBC Switzerland

Last reported at 2016-Apr-24 11:30 UTC. Time now 2016-May-06 18:48 UTC.
Position N 28°29' W 016°13'.
Warning: this ship's position is 12 days out of date.

Length 119 m; draft 6.1 m.

Type: Cargo ship. MMSI: 218629000.

Date/timePositionNaut miles runAvg speedWind from/ knotsBaromVisibWave heightAir tempDewpointWater temp
2016-Apr-24 11:30N 28°29' W 016°13'0 0.0
2016-Apr-24 10:10N 28°29' W 016°13'0 0.0
2016-Apr-24 07:22N 28°29' W 016°13'1 0.0
2016-Apr-22 09:25N 28°29' W 016°14'1 0.7
2016-Apr-22 08:12N 28°29' W 016°13'0 0.0
2016-Apr-21 23:06N 28°29' W 016°13'0 0.0
2016-Apr-21 22:24N 28°29' W 016°13'1 0.2
2016-Apr-21 17:31N 28°29' W 016°14'22 0.8
2016-Apr-20 14:30N 28°33' W 015°49'1515.7
2016-Apr-20 13:33N 28°43' W 015°36'1615.3
2016-Apr-20 12:31N 28°54' W 015°23'66014.2
2016-Apr-18 14:08N 36°00' W 005°26'66214.8
2016-Apr-16 17:25N 37°43' E 008°12'1715.6
2016-Apr-16 16:19N 37°46' E 008°33'1215.3
2016-Apr-16 15:33N 37°48' E 008°48'1515.2
2016-Apr-16 14:33N 37°50' E 009°07'1514.6
2016-Apr-16 13:33N 37°52' E 009°25'7714.4
2016-Apr-16 08:13N 38°04' E 011°02'1014.2
2016-Apr-16 07:31N 38°06' E 011°14'1414.2
2016-Apr-16 06:32N 38°08' E 011°32'7514.9
2016-Apr-16 01:32N 38°18' E 013°06'1515.2
2016-Apr-16 00:33N 38°18' E 013°24'1615.5
2016-Apr-15 23:32N 38°18' E 013°45'1514.8
2016-Apr-15 22:32N 38°19' E 014°03'4715.1
2016-Apr-15 19:24N 38°21' E 015°04'1415.3
2016-Apr-15 18:30N 38°21' E 015°21'1415.0
2016-Apr-15 17:33N 38°19' E 015°39'1212.6
2016-Apr-15 16:33N 38°07' E 015°36'1414.5
2016-Apr-15 15:33N 37°53' E 015°43'  

Dump ship's entire track history